sensor_id;sensor_type;location;lat;lon;timestamp;P1;durP1;ratioP1;P2;durP2;ratioP2
16385;SDS011;8302;51.154;4.456;2023-04-03T00:01:27;1.48;;;0.80;;
16385;SDS011;8302;51.154;4.456;2023-04-03T00:03:54;2.50;;;1.17;;
16385;SDS011;8302;51.154;4.456;2023-04-03T00:06:22;1.60;;;1.08;;
16385;SDS011;8302;51.154;4.456;2023-04-03T00:08:51;1.00;;;0.90;;
16385;SDS011;8302;51.154;4.456;2023-04-03T00:11:18;2.22;;;1.20;;
16385;SDS011;8302;51.154;4.456;2023-04-03T00:13:47;1.60;;;1.17;;
16385;SDS011;8302;51.154;4.456;2023-04-03T00:16:14;0.70;;;0.50;;
16385;SDS011;8302;51.154;4.456;2023-04-03T00:18:44;0.80;;;0.75;;
16385;SDS011;8302;51.154;4.456;2023-04-03T00:21:12;1.50;;;0.90;;
16385;SDS011;8302;51.154;4.456;2023-04-03T00:23:39;3.17;;;0.90;;
16385;SDS011;8302;51.154;4.456;2023-04-03T00:26:07;0.90;;;0.85;;
16385;SDS011;8302;51.154;4.456;2023-04-03T00:28:36;3.65;;;1.00;;
16385;SDS011;8302;51.154;4.456;2023-04-03T00:31:03;1.70;;;0.88;;
16385;SDS011;8302;51.154;4.456;2023-04-03T00:33:31;0.63;;;0.63;;
16385;SDS011;8302;51.154;4.456;2023-04-03T00:36:01;1.38;;;1.23;;
16385;SDS011;8302;51.154;4.456;2023-04-03T00:38:32;3.40;;;0.95;;
16385;SDS011;8302;51.154;4.456;2023-04-03T00:40:59;1.88;;;1.30;;
16385;SDS011;8302;51.154;4.456;2023-04-03T00:43:27;1.05;;;0.93;;
16385;SDS011;8302;51.154;4.456;2023-04-03T00:45:55;1.45;;;1.20;;
16385;SDS011;8302;51.154;4.456;2023-04-03T00:48:24;0.77;;;0.75;;
16385;SDS011;8302;51.154;4.456;2023-04-03T00:50:53;0.98;;;0.82;;
16385;SDS011;8302;51.154;4.456;2023-04-03T00:53:23;1.33;;;1.00;;
16385;SDS011;8302;51.154;4.456;2023-04-03T00:55:52;1.25;;;0.70;;
16385;SDS011;8302;51.154;4.456;2023-04-03T00:58:21;2.78;;;1.23;;
16385;SDS011;8302;51.154;4.456;2023-04-03T01:00:52;0.90;;;0.90;;
16385;SDS011;8302;51.154;4.456;2023-04-03T01:03:23;3.65;;;1.30;;
16385;SDS011;8302;51.154;4.456;2023-04-03T01:05:52;1.20;;;1.08;;
16385;SDS011;8302;51.154;4.456;2023-04-03T01:08:22;0.80;;;0.80;;
16385;SDS011;8302;51.154;4.456;2023-04-03T01:10:50;2.85;;;0.95;;
16385;SDS011;8302;51.154;4.456;2023-04-03T01:13:21;1.40;;;1.30;;
16385;SDS011;8302;51.154;4.456;2023-04-03T01:15:49;2.50;;;1.35;;
16385;SDS011;8302;51.154;4.456;2023-04-03T01:18:17;1.40;;;1.10;;
16385;SDS011;8302;51.154;4.456;2023-04-03T01:23:41;0.70;;;0.70;;
16385;SDS011;8302;51.154;4.456;2023-04-03T01:26:10;2.67;;;1.25;;
16385;SDS011;8302;51.154;4.456;2023-04-03T01:28:38;1.65;;;1.00;;
16385;SDS011;8302;51.154;4.456;2023-04-03T01:31:09;1.58;;;1.20;;
16385;SDS011;8302;51.154;4.456;2023-04-03T01:33:42;1.58;;;1.13;;
16385;SDS011;8302;51.154;4.456;2023-04-03T01:36:11;0.90;;;0.82;;
16385;SDS011;8302;51.154;4.456;2023-04-03T01:38:40;0.55;;;0.55;;
16385;SDS011;8302;51.154;4.456;2023-04-03T01:41:08;0.75;;;0.75;;
16385;SDS011;8302;51.154;4.456;2023-04-03T01:43:36;1.17;;;1.08;;
16385;SDS011;8302;51.154;4.456;2023-04-03T01:46:04;1.83;;;1.02;;
16385;SDS011;8302;51.154;4.456;2023-04-03T01:48:31;2.20;;;1.45;;
16385;SDS011;8302;51.154;4.456;2023-04-03T01:51:00;2.00;;;1.20;;
16385;SDS011;8302;51.154;4.456;2023-04-03T01:53:28;1.33;;;0.95;;
16385;SDS011;8302;51.154;4.456;2023-04-03T01:55:56;1.40;;;1.23;;
16385;SDS011;8302;51.154;4.456;2023-04-03T01:58:23;0.93;;;0.90;;
16385;SDS011;8302;51.154;4.456;2023-04-03T02:00:52;1.35;;;1.25;;
16385;SDS011;8302;51.154;4.456;2023-04-03T02:03:20;1.55;;;1.27;;
16385;SDS011;8302;51.154;4.456;2023-04-03T02:05:49;2.72;;;1.38;;
16385;SDS011;8302;51.154;4.456;2023-04-03T02:08:18;0.80;;;0.80;;
16385;SDS011;8302;51.154;4.456;2023-04-03T02:10:46;1.05;;;0.80;;
16385;SDS011;8302;51.154;4.456;2023-04-03T02:13:14;1.95;;;1.13;;
16385;SDS011;8302;51.154;4.456;2023-04-03T02:15:42;1.23;;;0.90;;
16385;SDS011;8302;51.154;4.456;2023-04-03T02:18:10;0.85;;;0.85;;
16385;SDS011;8302;51.154;4.456;2023-04-03T02:20:37;1.75;;;1.05;;
16385;SDS011;8302;51.154;4.456;2023-04-03T02:23:05;1.35;;;1.00;;
16385;SDS011;8302;51.154;4.456;2023-04-03T02:25:34;0.80;;;0.80;;
16385;SDS011;8302;51.154;4.456;2023-04-03T02:28:04;1.00;;;0.90;;
16385;SDS011;8302;51.154;4.456;2023-04-03T02:30:32;2.10;;;1.10;;
16385;SDS011;8302;51.154;4.456;2023-04-03T02:33:00;1.58;;;1.00;;
16385;SDS011;8302;51.154;4.456;2023-04-03T02:35:28;2.53;;;1.27;;
16385;SDS011;8302;51.154;4.456;2023-04-03T02:37:57;0.98;;;0.90;;
16385;SDS011;8302;51.154;4.456;2023-04-03T02:40:25;1.00;;;0.90;;
16385;SDS011;8302;51.154;4.456;2023-04-03T02:42:54;1.30;;;0.95;;
16385;SDS011;8302;51.154;4.456;2023-04-03T02:45:23;1.30;;;1.20;;
16385;SDS011;8302;51.154;4.456;2023-04-03T02:47:51;0.55;;;0.55;;
16385;SDS011;8302;51.154;4.456;2023-04-03T02:50:19;0.65;;;0.65;;
16385;SDS011;8302;51.154;4.456;2023-04-03T02:52:46;1.13;;;1.02;;
16385;SDS011;8302;51.154;4.456;2023-04-03T02:55:14;4.05;;;0.93;;
16385;SDS011;8302;51.154;4.456;2023-04-03T02:57:46;1.17;;;0.95;;
16385;SDS011;8302;51.154;4.456;2023-04-03T03:00:15;1.63;;;1.05;;
16385;SDS011;8302;51.154;4.456;2023-04-03T03:02:43;1.30;;;0.93;;
16385;SDS011;8302;51.154;4.456;2023-04-03T03:05:11;1.35;;;0.98;;
16385;SDS011;8302;51.154;4.456;2023-04-03T03:07:38;3.95;;;0.82;;
16385;SDS011;8302;51.154;4.456;2023-04-03T03:10:06;2.28;;;1.02;;
16385;SDS011;8302;51.154;4.456;2023-04-03T03:12:34;1.42;;;0.82;;
16385;SDS011;8302;51.154;4.456;2023-04-03T03:15:01;1.50;;;1.10;;
16385;SDS011;8302;51.154;4.456;2023-04-03T03:17:30;2.35;;;1.05;;
16385;SDS011;8302;51.154;4.456;2023-04-03T03:19:58;1.10;;;1.00;;
16385;SDS011;8302;51.154;4.456;2023-04-03T03:22:27;1.25;;;0.98;;
16385;SDS011;8302;51.154;4.456;2023-04-03T03:24:57;1.05;;;0.82;;
16385;SDS011;8302;51.154;4.456;2023-04-03T03:27:24;1.13;;;1.02;;
16385;SDS011;8302;51.154;4.456;2023-04-03T03:29:52;3.38;;;1.27;;
16385;SDS011;8302;51.154;4.456;2023-04-03T03:32:20;1.02;;;0.90;;
16385;SDS011;8302;51.154;4.456;2023-04-03T03:34:50;0.80;;;0.80;;
16385;SDS011;8302;51.154;4.456;2023-04-03T03:37:19;1.08;;;0.80;;
16385;SDS011;8302;51.154;4.456;2023-04-03T03:39:47;1.95;;;1.33;;
16385;SDS011;8302;51.154;4.456;2023-04-03T03:42:15;1.58;;;1.02;;
16385;SDS011;8302;51.154;4.456;2023-04-03T03:44:43;1.05;;;0.73;;
16385;SDS011;8302;51.154;4.456;2023-04-03T03:47:11;1.00;;;0.68;;
16385;SDS011;8302;51.154;4.456;2023-04-03T03:49:38;1.08;;;0.98;;
16385;SDS011;8302;51.154;4.456;2023-04-03T03:52:08;0.60;;;0.60;;
16385;SDS011;8302;51.154;4.456;2023-04-03T03:54:37;1.20;;;0.90;;
16385;SDS011;8302;51.154;4.456;2023-04-03T03:57:05;1.42;;;0.93;;
16385;SDS011;8302;51.154;4.456;2023-04-03T03:59:33;1.10;;;1.05;;
16385;SDS011;8302;51.154;4.456;2023-04-03T04:02:01;1.38;;;0.90;;
16385;SDS011;8302;51.154;4.456;2023-04-03T04:04:28;0.60;;;0.50;;
16385;SDS011;8302;51.154;4.456;2023-04-03T04:06:56;1.40;;;1.30;;
16385;SDS011;8302;51.154;4.456;2023-04-03T04:09:25;0.80;;;0.70;;
16385;SDS011;8302;51.154;4.456;2023-04-03T04:11:53;1.67;;;1.05;;
16385;SDS011;8302;51.154;4.456;2023-04-03T04:14:21;0.88;;;0.73;;
16385;SDS011;8302;51.154;4.456;2023-04-03T04:16:50;1.75;;;0.95;;
16385;SDS011;8302;51.154;4.456;2023-04-03T04:19:23;1.20;;;0.80;;
16385;SDS011;8302;51.154;4.456;2023-04-03T04:21:50;2.38;;;0.93;;
16385;SDS011;8302;51.154;4.456;2023-04-03T04:24:18;3.70;;;1.10;;
16385;SDS011;8302;51.154;4.456;2023-04-03T04:26:49;0.82;;;0.82;;
16385;SDS011;8302;51.154;4.456;2023-04-03T04:29:19;0.85;;;0.85;;
16385;SDS011;8302;51.154;4.456;2023-04-03T04:31:49;1.48;;;1.00;;
16385;SDS011;8302;51.154;4.456;2023-04-03T04:34:16;1.25;;;1.00;;
16385;SDS011;8302;51.154;4.456;2023-04-03T04:36:44;3.17;;;1.65;;
16385;SDS011;8302;51.154;4.456;2023-04-03T04:39:12;1.50;;;1.08;;
16385;SDS011;8302;51.154;4.456;2023-04-03T04:41:40;1.40;;;1.15;;
16385;SDS011;8302;51.154;4.456;2023-04-03T04:44:09;1.35;;;0.77;;
16385;SDS011;8302;51.154;4.456;2023-04-03T04:46:37;5.85;;;1.70;;
16385;SDS011;8302;51.154;4.456;2023-04-03T04:49:07;0.63;;;0.63;;
16385;SDS011;8302;51.154;4.456;2023-04-03T04:51:34;0.90;;;0.90;;
16385;SDS011;8302;51.154;4.456;2023-04-03T04:54:18;1.67;;;0.68;;
16385;SDS011;8302;51.154;4.456;2023-04-03T04:56:47;0.93;;;0.85;;
16385;SDS011;8302;51.154;4.456;2023-04-03T04:59:16;2.40;;;1.10;;
16385;SDS011;8302;51.154;4.456;2023-04-03T05:01:48;0.57;;;0.57;;
16385;SDS011;8302;51.154;4.456;2023-04-03T05:04:16;1.02;;;0.98;;
16385;SDS011;8302;51.154;4.456;2023-04-03T05:06:48;0.77;;;0.77;;
16385;SDS011;8302;51.154;4.456;2023-04-03T05:09:20;1.75;;;1.23;;
16385;SDS011;8302;51.154;4.456;2023-04-03T05:11:49;2.00;;;1.47;;
16385;SDS011;8302;51.154;4.456;2023-04-03T05:14:22;2.05;;;1.33;;
16385;SDS011;8302;51.154;4.456;2023-04-03T05:16:50;1.73;;;1.02;;
16385;SDS011;8302;51.154;4.456;2023-04-03T05:19:22;1.38;;;0.93;;
16385;SDS011;8302;51.154;4.456;2023-04-03T05:21:50;1.33;;;1.23;;
16385;SDS011;8302;51.154;4.456;2023-04-03T05:24:18;4.05;;;1.05;;
16385;SDS011;8302;51.154;4.456;2023-04-03T05:26:46;6.45;;;1.38;;
16385;SDS011;8302;51.154;4.456;2023-04-03T05:29:14;2.30;;;1.30;;
16385;SDS011;8302;51.154;4.456;2023-04-03T05:31:43;3.97;;;1.98;;
16385;SDS011;8302;51.154;4.456;2023-04-03T05:34:12;1.55;;;1.25;;
16385;SDS011;8302;51.154;4.456;2023-04-03T05:36:41;1.85;;;1.70;;
16385;SDS011;8302;51.154;4.456;2023-04-03T05:39:11;1.42;;;1.00;;
16385;SDS011;8302;51.154;4.456;2023-04-03T05:41:41;5.13;;;1.85;;
16385;SDS011;8302;51.154;4.456;2023-04-03T05:44:09;1.92;;;1.45;;
16385;SDS011;8302;51.154;4.456;2023-04-03T05:46:37;2.85;;;1.25;;
16385;SDS011;8302;51.154;4.456;2023-04-03T05:49:08;2.95;;;1.80;;
16385;SDS011;8302;51.154;4.456;2023-04-03T05:51:37;3.00;;;1.23;;
16385;SDS011;8302;51.154;4.456;2023-04-03T05:54:13;1.92;;;1.35;;
16385;SDS011;8302;51.154;4.456;2023-04-03T05:56:42;1.58;;;1.17;;
16385;SDS011;8302;51.154;4.456;2023-04-03T05:59:10;2.55;;;1.25;;
16385;SDS011;8302;51.154;4.456;2023-04-03T06:01:38;2.72;;;1.63;;
16385;SDS011;8302;51.154;4.456;2023-04-03T06:04:08;2.40;;;1.15;;
16385;SDS011;8302;51.154;4.456;2023-04-03T06:06:44;2.83;;;1.33;;
16385;SDS011;8302;51.154;4.456;2023-04-03T06:09:11;1.48;;;1.38;;
16385;SDS011;8302;51.154;4.456;2023-04-03T06:11:39;3.58;;;1.92;;
16385;SDS011;8302;51.154;4.456;2023-04-03T06:14:08;2.10;;;1.30;;
16385;SDS011;8302;51.154;4.456;2023-04-03T06:16:36;3.15;;;1.40;;
16385;SDS011;8302;51.154;4.456;2023-04-03T06:19:06;3.83;;;1.48;;
16385;SDS011;8302;51.154;4.456;2023-04-03T06:21:39;2.93;;;1.47;;
16385;SDS011;8302;51.154;4.456;2023-04-03T06:24:07;2.67;;;1.70;;
16385;SDS011;8302;51.154;4.456;2023-04-03T06:26:35;4.15;;;1.50;;
16385;SDS011;8302;51.154;4.456;2023-04-03T06:29:02;3.50;;;1.70;;
16385;SDS011;8302;51.154;4.456;2023-04-03T06:31:30;2.00;;;1.30;;
16385;SDS011;8302;51.154;4.456;2023-04-03T06:33:58;5.32;;;1.30;;
16385;SDS011;8302;51.154;4.456;2023-04-03T06:36:25;5.13;;;1.50;;
16385;SDS011;8302;51.154;4.456;2023-04-03T06:38:54;2.50;;;1.60;;
16385;SDS011;8302;51.154;4.456;2023-04-03T06:41:22;2.20;;;1.23;;
16385;SDS011;8302;51.154;4.456;2023-04-03T06:43:50;1.25;;;1.15;;
16385;SDS011;8302;51.154;4.456;2023-04-03T06:46:18;2.50;;;1.67;;
16385;SDS011;8302;51.154;4.456;2023-04-03T06:48:47;6.13;;;2.22;;
16385;SDS011;8302;51.154;4.456;2023-04-03T06:51:16;2.97;;;1.02;;
16385;SDS011;8302;51.154;4.456;2023-04-03T06:53:45;3.22;;;1.92;;
16385;SDS011;8302;51.154;4.456;2023-04-03T06:56:14;5.32;;;1.88;;
16385;SDS011;8302;51.154;4.456;2023-04-03T06:58:42;3.08;;;1.95;;
16385;SDS011;8302;51.154;4.456;2023-04-03T07:01:11;3.28;;;1.67;;
16385;SDS011;8302;51.154;4.456;2023-04-03T07:03:38;3.95;;;1.90;;
16385;SDS011;8302;51.154;4.456;2023-04-03T07:06:07;3.47;;;2.20;;
16385;SDS011;8302;51.154;4.456;2023-04-03T07:08:35;3.15;;;1.88;;
16385;SDS011;8302;51.154;4.456;2023-04-03T07:11:02;3.70;;;1.83;;
16385;SDS011;8302;51.154;4.456;2023-04-03T07:13:31;3.28;;;1.75;;
16385;SDS011;8302;51.154;4.456;2023-04-03T07:15:59;3.08;;;1.60;;
16385;SDS011;8302;51.154;4.456;2023-04-03T07:18:27;2.65;;;1.77;;
16385;SDS011;8302;51.154;4.456;2023-04-03T07:20:55;3.95;;;2.03;;
16385;SDS011;8302;51.154;4.456;2023-04-03T07:23:22;2.95;;;1.75;;
16385;SDS011;8302;51.154;4.456;2023-04-03T07:25:51;3.33;;;1.83;;
16385;SDS011;8302;51.154;4.456;2023-04-03T07:28:19;1.58;;;1.27;;
16385;SDS011;8302;51.154;4.456;2023-04-03T07:30:48;3.15;;;1.60;;
16385;SDS011;8302;51.154;4.456;2023-04-03T07:33:17;5.60;;;2.00;;
16385;SDS011;8302;51.154;4.456;2023-04-03T07:35:45;4.75;;;1.73;;
16385;SDS011;8302;51.154;4.456;2023-04-03T07:38:13;2.45;;;1.40;;
16385;SDS011;8302;51.154;4.456;2023-04-03T07:40:45;3.28;;;1.95;;
16385;SDS011;8302;51.154;4.456;2023-04-03T07:43:12;3.60;;;1.67;;
16385;SDS011;8302;51.154;4.456;2023-04-03T07:45:41;4.63;;;1.83;;
16385;SDS011;8302;51.154;4.456;2023-04-03T07:48:11;1.50;;;1.35;;
16385;SDS011;8302;51.154;4.456;2023-04-03T07:50:39;4.75;;;1.75;;
16385;SDS011;8302;51.154;4.456;2023-04-03T07:53:07;3.65;;;1.40;;
16385;SDS011;8302;51.154;4.456;2023-04-03T07:55:35;3.72;;;1.55;;
16385;SDS011;8302;51.154;4.456;2023-04-03T07:58:09;2.28;;;1.40;;
16385;SDS011;8302;51.154;4.456;2023-04-03T08:00:37;2.40;;;1.70;;
16385;SDS011;8302;51.154;4.456;2023-04-03T08:03:05;2.10;;;1.45;;
16385;SDS011;8302;51.154;4.456;2023-04-03T08:05:37;1.77;;;1.15;;
16385;SDS011;8302;51.154;4.456;2023-04-03T08:08:06;2.20;;;1.60;;
16385;SDS011;8302;51.154;4.456;2023-04-03T08:10:34;2.95;;;1.58;;
16385;SDS011;8302;51.154;4.456;2023-04-03T08:13:01;2.03;;;1.58;;
16385;SDS011;8302;51.154;4.456;2023-04-03T08:15:29;2.90;;;1.50;;
16385;SDS011;8302;51.154;4.456;2023-04-03T08:17:58;2.53;;;1.30;;
16385;SDS011;8302;51.154;4.456;2023-04-03T08:20:26;2.72;;;1.23;;
16385;SDS011;8302;51.154;4.456;2023-04-03T08:22:55;1.40;;;0.80;;
16385;SDS011;8302;51.154;4.456;2023-04-03T08:25:23;3.75;;;1.73;;
16385;SDS011;8302;51.154;4.456;2023-04-03T08:27:50;1.92;;;1.00;;
16385;SDS011;8302;51.154;4.456;2023-04-03T08:30:18;3.33;;;1.65;;
16385;SDS011;8302;51.154;4.456;2023-04-03T08:32:46;2.22;;;1.20;;
16385;SDS011;8302;51.154;4.456;2023-04-03T08:35:13;2.03;;;1.55;;
16385;SDS011;8302;51.154;4.456;2023-04-03T08:37:41;2.33;;;1.27;;
16385;SDS011;8302;51.154;4.456;2023-04-03T08:40:13;2.67;;;1.58;;
16385;SDS011;8302;51.154;4.456;2023-04-03T08:42:42;2.35;;;1.42;;
16385;SDS011;8302;51.154;4.456;2023-04-03T08:45:13;3.13;;;1.40;;
16385;SDS011;8302;51.154;4.456;2023-04-03T08:47:43;2.53;;;1.20;;
16385;SDS011;8302;51.154;4.456;2023-04-03T08:50:14;2.78;;;1.17;;
16385;SDS011;8302;51.154;4.456;2023-04-03T08:52:44;1.67;;;1.30;;
16385;SDS011;8302;51.154;4.456;2023-04-03T08:55:17;2.47;;;1.42;;
16385;SDS011;8302;51.154;4.456;2023-04-03T08:57:47;1.13;;;1.00;;
16385;SDS011;8302;51.154;4.456;2023-04-03T09:00:16;2.55;;;1.20;;
16385;SDS011;8302;51.154;4.456;2023-04-03T09:02:44;1.67;;;1.00;;
16385;SDS011;8302;51.154;4.456;2023-04-03T09:05:14;1.38;;;1.05;;
16385;SDS011;8302;51.154;4.456;2023-04-03T09:07:43;1.38;;;1.02;;
16385;SDS011;8302;51.154;4.456;2023-04-03T09:10:18;2.53;;;1.30;;
16385;SDS011;8302;51.154;4.456;2023-04-03T09:12:49;2.72;;;1.40;;
16385;SDS011;8302;51.154;4.456;2023-04-03T09:15:20;1.48;;;0.90;;
16385;SDS011;8302;51.154;4.456;2023-04-03T09:18:04;2.17;;;1.27;;
16385;SDS011;8302;51.154;4.456;2023-04-03T09:20:37;1.85;;;1.30;;
16385;SDS011;8302;51.154;4.456;2023-04-03T09:23:10;2.33;;;1.10;;
16385;SDS011;8302;51.154;4.456;2023-04-03T09:25:43;1.45;;;1.00;;
16385;SDS011;8302;51.154;4.456;2023-04-03T09:28:11;3.05;;;1.17;;
16385;SDS011;8302;51.154;4.456;2023-04-03T09:30:38;0.98;;;0.88;;
16385;SDS011;8302;51.154;4.456;2023-04-03T09:33:06;3.42;;;1.52;;
16385;SDS011;8302;51.154;4.456;2023-04-03T09:35:34;2.13;;;1.00;;
16385;SDS011;8302;51.154;4.456;2023-04-03T09:38:15;1.05;;;0.95;;
16385;SDS011;8302;51.154;4.456;2023-04-03T09:40:45;1.27;;;1.00;;
16385;SDS011;8302;51.154;4.456;2023-04-03T09:43:27;1.45;;;1.17;;
16385;SDS011;8302;51.154;4.456;2023-04-03T09:45:55;1.85;;;1.00;;
16385;SDS011;8302;51.154;4.456;2023-04-03T09:48:24;1.20;;;1.10;;
16385;SDS011;8302;51.154;4.456;2023-04-03T09:50:53;2.27;;;1.00;;
16385;SDS011;8302;51.154;4.456;2023-04-03T09:53:26;2.38;;;1.30;;
16385;SDS011;8302;51.154;4.456;2023-04-03T09:55:55;1.48;;;0.93;;
16385;SDS011;8302;51.154;4.456;2023-04-03T09:58:24;1.20;;;0.90;;
16385;SDS011;8302;51.154;4.456;2023-04-03T10:00:57;4.45;;;1.25;;
16385;SDS011;8302;51.154;4.456;2023-04-03T10:03:27;1.92;;;0.90;;
16385;SDS011;8302;51.154;4.456;2023-04-03T10:05:55;1.83;;;1.20;;
16385;SDS011;8302;51.154;4.456;2023-04-03T10:08:25;1.67;;;0.88;;
16385;SDS011;8302;51.154;4.456;2023-04-03T10:11:10;1.52;;;0.70;;
16385;SDS011;8302;51.154;4.456;2023-04-03T10:13:51;2.63;;;0.93;;
16385;SDS011;8302;51.154;4.456;2023-04-03T10:16:20;2.45;;;0.90;;
16385;SDS011;8302;51.154;4.456;2023-04-03T10:18:53;3.13;;;0.90;;
16385;SDS011;8302;51.154;4.456;2023-04-03T10:21:27;1.40;;;1.00;;
16385;SDS011;8302;51.154;4.456;2023-04-03T10:23:58;3.03;;;1.42;;
16385;SDS011;8302;51.154;4.456;2023-04-03T10:26:32;2.03;;;0.90;;
16385;SDS011;8302;51.154;4.456;2023-04-03T10:29:02;2.78;;;1.10;;
16385;SDS011;8302;51.154;4.456;2023-04-03T10:31:36;1.95;;;1.05;;
16385;SDS011;8302;51.154;4.456;2023-04-03T10:34:05;1.40;;;1.00;;
16385;SDS011;8302;51.154;4.456;2023-04-03T10:36:35;1.30;;;1.00;;
16385;SDS011;8302;51.154;4.456;2023-04-03T10:39:08;1.88;;;1.00;;
16385;SDS011;8302;51.154;4.456;2023-04-03T10:41:43;1.40;;;1.00;;
16385;SDS011;8302;51.154;4.456;2023-04-03T10:44:16;3.17;;;1.05;;
16385;SDS011;8302;51.154;4.456;2023-04-03T10:46:46;3.38;;;0.80;;
16385;SDS011;8302;51.154;4.456;2023-04-03T10:49:21;1.52;;;0.77;;
16385;SDS011;8302;51.154;4.456;2023-04-03T10:51:55;1.67;;;0.82;;
16385;SDS011;8302;51.154;4.456;2023-04-03T10:54:28;1.90;;;1.05;;
16385;SDS011;8302;51.154;4.456;2023-04-03T10:57:00;1.10;;;1.00;;
16385;SDS011;8302;51.154;4.456;2023-04-03T10:59:38;1.30;;;0.90;;
16385;SDS011;8302;51.154;4.456;2023-04-03T11:02:11;1.52;;;0.80;;
16385;SDS011;8302;51.154;4.456;2023-04-03T11:04:41;0.80;;;0.60;;
16385;SDS011;8302;51.154;4.456;2023-04-03T11:07:12;1.23;;;0.93;;
16385;SDS011;8302;51.154;4.456;2023-04-03T11:09:42;1.48;;;0.70;;
16385;SDS011;8302;51.154;4.456;2023-04-03T11:12:13;0.90;;;0.80;;
16385;SDS011;8302;51.154;4.456;2023-04-03T11:14:41;0.80;;;0.68;;
16385;SDS011;8302;51.154;4.456;2023-04-03T11:17:15;0.75;;;0.70;;
16385;SDS011;8302;51.154;4.456;2023-04-03T11:19:49;1.52;;;1.10;;
16385;SDS011;8302;51.154;4.456;2023-04-03T11:22:21;0.98;;;0.70;;
16385;SDS011;8302;51.154;4.456;2023-04-03T11:24:53;1.67;;;0.85;;
16385;SDS011;8302;51.154;4.456;2023-04-03T11:27:27;1.85;;;1.00;;
16385;SDS011;8302;51.154;4.456;2023-04-03T11:29:59;1.30;;;0.90;;
16385;SDS011;8302;51.154;4.456;2023-04-03T11:32:29;0.57;;;0.57;;
16385;SDS011;8302;51.154;4.456;2023-04-03T11:34:59;2.05;;;0.60;;
16385;SDS011;8302;51.154;4.456;2023-04-03T11:37:28;1.27;;;0.75;;
16385;SDS011;8302;51.154;4.456;2023-04-03T11:39:59;1.98;;;0.90;;
16385;SDS011;8302;51.154;4.456;2023-04-03T11:42:32;0.95;;;0.60;;
16385;SDS011;8302;51.154;4.456;2023-04-03T11:45:17;1.15;;;0.60;;
16385;SDS011;8302;51.154;4.456;2023-04-03T11:47:52;1.10;;;0.70;;
16385;SDS011;8302;51.154;4.456;2023-04-03T11:53:26;1.00;;;0.60;;
16385;SDS011;8302;51.154;4.456;2023-04-03T11:55:55;0.50;;;0.50;;
16385;SDS011;8302;51.154;4.456;2023-04-03T11:58:25;0.50;;;0.50;;
16385;SDS011;8302;51.154;4.456;2023-04-03T12:00:54;0.95;;;0.82;;
16385;SDS011;8302;51.154;4.456;2023-04-03T12:03:30;1.33;;;0.52;;
16385;SDS011;8302;51.154;4.456;2023-04-03T12:06:41;0.50;;;0.50;;
16385;SDS011;8302;51.154;4.456;2023-04-03T12:08:46;0.77;;;0.70;;
16385;SDS011;8302;51.154;4.456;2023-04-03T12:11:14;0.73;;;0.70;;
16385;SDS011;8302;51.154;4.456;2023-04-03T12:14:01;0.45;;;0.45;;
16385;SDS011;8302;51.154;4.456;2023-04-03T12:16:30;1.58;;;0.85;;
16385;SDS011;8302;51.154;4.456;2023-04-03T12:19:01;0.68;;;0.47;;
16385;SDS011;8302;51.154;4.456;2023-04-03T12:24:23;0.80;;;0.50;;
16385;SDS011;8302;51.154;4.456;2023-04-03T12:27:01;0.63;;;0.60;;
16385;SDS011;8302;51.154;4.456;2023-04-03T12:29:34;1.48;;;0.40;;
16385;SDS011;8302;51.154;4.456;2023-04-03T12:32:09;0.45;;;0.45;;
16385;SDS011;8302;51.154;4.456;2023-04-03T12:34:43;0.70;;;0.60;;
16385;SDS011;8302;51.154;4.456;2023-04-03T12:37:17;0.60;;;0.50;;
16385;SDS011;8302;51.154;4.456;2023-04-03T12:39:50;0.68;;;0.50;;
16385;SDS011;8302;51.154;4.456;2023-04-03T12:42:32;0.60;;;0.60;;
16385;SDS011;8302;51.154;4.456;2023-04-03T12:45:06;0.68;;;0.68;;
16385;SDS011;8302;51.154;4.456;2023-04-03T12:47:37;0.57;;;0.57;;
16385;SDS011;8302;51.154;4.456;2023-04-03T12:50:16;0.38;;;0.38;;
16385;SDS011;8302;51.154;4.456;2023-04-03T12:52:46;0.95;;;0.60;;
16385;SDS011;8302;51.154;4.456;2023-04-03T12:55:17;0.63;;;0.52;;
16385;SDS011;8302;51.154;4.456;2023-04-03T12:57:46;0.50;;;0.50;;
16385;SDS011;8302;51.154;4.456;2023-04-03T13:00:25;1.02;;;0.60;;
16385;SDS011;8302;51.154;4.456;2023-04-03T13:02:53;0.68;;;0.40;;
16385;SDS011;8302;51.154;4.456;2023-04-03T13:05:21;0.82;;;0.52;;
16385;SDS011;8302;51.154;4.456;2023-04-03T13:07:50;1.58;;;0.70;;
16385;SDS011;8302;51.154;4.456;2023-04-03T13:10:19;0.52;;;0.47;;
16385;SDS011;8302;51.154;4.456;2023-04-03T13:12:48;0.70;;;0.60;;
16385;SDS011;8302;51.154;4.456;2023-04-03T13:15:18;0.73;;;0.47;;
16385;SDS011;8302;51.154;4.456;2023-04-03T13:17:47;1.52;;;0.63;;
16385;SDS011;8302;51.154;4.456;2023-04-03T13:20:18;0.57;;;0.50;;
16385;SDS011;8302;51.154;4.456;2023-04-03T13:22:48;1.02;;;0.40;;
16385;SDS011;8302;51.154;4.456;2023-04-03T13:25:16;0.50;;;0.50;;
16385;SDS011;8302;51.154;4.456;2023-04-03T13:27:44;0.73;;;0.60;;
16385;SDS011;8302;51.154;4.456;2023-04-03T13:30:18;0.45;;;0.45;;
16385;SDS011;8302;51.154;4.456;2023-04-03T13:32:48;0.63;;;0.55;;
16385;SDS011;8302;51.154;4.456;2023-04-03T13:35:26;0.40;;;0.40;;
16385;SDS011;8302;51.154;4.456;2023-04-03T13:37:55;0.70;;;0.50;;
16385;SDS011;8302;51.154;4.456;2023-04-03T13:40:22;0.75;;;0.60;;
16385;SDS011;8302;51.154;4.456;2023-04-03T13:43:16;0.50;;;0.40;;
16385;SDS011;8302;51.154;4.456;2023-04-03T13:45:54;0.63;;;0.50;;
16385;SDS011;8302;51.154;4.456;2023-04-03T13:48:24;0.90;;;0.40;;
16385;SDS011;8302;51.154;4.456;2023-04-03T13:50:53;1.05;;;0.57;;
16385;SDS011;8302;51.154;4.456;2023-04-03T13:53:21;0.60;;;0.60;;
16385;SDS011;8302;51.154;4.456;2023-04-03T13:55:54;0.40;;;0.40;;
16385;SDS011;8302;51.154;4.456;2023-04-03T13:58:24;0.47;;;0.40;;
16385;SDS011;8302;51.154;4.456;2023-04-03T14:00:53;0.50;;;0.38;;
16385;SDS011;8302;51.154;4.456;2023-04-03T14:03:22;1.38;;;0.55;;
16385;SDS011;8302;51.154;4.456;2023-04-03T14:05:52;0.65;;;0.60;;
16385;SDS011;8302;51.154;4.456;2023-04-03T14:08:21;1.10;;;0.68;;
16385;SDS011;8302;51.154;4.456;2023-04-03T14:11:05;0.40;;;0.40;;
16385;SDS011;8302;51.154;4.456;2023-04-03T14:13:32;1.05;;;0.50;;
16385;SDS011;8302;51.154;4.456;2023-04-03T14:16:00;1.15;;;0.30;;
16385;SDS011;8302;51.154;4.456;2023-04-03T14:18:41;0.30;;;0.30;;
16385;SDS011;8302;51.154;4.456;2023-04-03T14:21:13;0.45;;;0.45;;
16385;SDS011;8302;51.154;4.456;2023-04-03T14:23:41;0.45;;;0.45;;
16385;SDS011;8302;51.154;4.456;2023-04-03T14:26:09;0.32;;;0.32;;
16385;SDS011;8302;51.154;4.456;2023-04-03T14:28:38;1.20;;;0.45;;
16385;SDS011;8302;51.154;4.456;2023-04-03T14:31:09;0.75;;;0.40;;
16385;SDS011;8302;51.154;4.456;2023-04-03T14:33:38;0.30;;;0.30;;
16385;SDS011;8302;51.154;4.456;2023-04-03T14:36:11;0.50;;;0.50;;
16385;SDS011;8302;51.154;4.456;2023-04-03T14:38:40;0.40;;;0.40;;
16385;SDS011;8302;51.154;4.456;2023-04-03T14:41:09;0.60;;;0.60;;
16385;SDS011;8302;51.154;4.456;2023-04-03T14:43:42;1.00;;;0.50;;
16385;SDS011;8302;51.154;4.456;2023-04-03T14:46:12;0.38;;;0.38;;
16385;SDS011;8302;51.154;4.456;2023-04-03T14:48:40;0.35;;;0.28;;
16385;SDS011;8302;51.154;4.456;2023-04-03T14:51:08;0.98;;;0.52;;
16385;SDS011;8302;51.154;4.456;2023-04-03T14:53:38;0.77;;;0.57;;
16385;SDS011;8302;51.154;4.456;2023-04-03T14:56:11;1.40;;;0.65;;
16385;SDS011;8302;51.154;4.456;2023-04-03T14:58:39;0.35;;;0.35;;
16385;SDS011;8302;51.154;4.456;2023-04-03T15:01:08;0.40;;;0.40;;
16385;SDS011;8302;51.154;4.456;2023-04-03T15:03:36;0.43;;;0.40;;
16385;SDS011;8302;51.154;4.456;2023-04-03T15:06:04;0.30;;;0.30;;
16385;SDS011;8302;51.154;4.456;2023-04-03T15:08:32;0.43;;;0.40;;
16385;SDS011;8302;51.154;4.456;2023-04-03T15:11:00;0.65;;;0.57;;
16385;SDS011;8302;51.154;4.456;2023-04-03T15:13:28;1.27;;;0.60;;
16385;SDS011;8302;51.154;4.456;2023-04-03T15:15:56;0.60;;;0.55;;
16385;SDS011;8302;51.154;4.456;2023-04-03T15:18:24;1.58;;;0.60;;
16385;SDS011;8302;51.154;4.456;2023-04-03T15:20:56;0.50;;;0.50;;
16385;SDS011;8302;51.154;4.456;2023-04-03T15:23:24;0.50;;;0.50;;
16385;SDS011;8302;51.154;4.456;2023-04-03T15:25:52;0.50;;;0.50;;